Time;durP1;ratioP1;P1;durP2;ratioP2;P2;SDS_P1;SDS_P2;PMS_P1;PMS_P2;Temp;Humidity;BMP_temperature;BMP_pressure;BME280_temperature;BME280_humidity;BME280_pressure;Samples;Min_cycle;Max_cycle;Signal;HPM_P1;HPM_P2
2022/12/19 00:01:22;;;;;;;;;;;-0.50;99.90;;;;;;5029044;28;20362;-73
2022/12/19 00:03:49;;;;;;;;;;;-0.40;99.90;;;;;;5027896;28;19913;-73
2022/12/19 00:06:15;;;;;;;;;;;-0.40;99.90;;;;;;5028722;28;20055;-73
2022/12/19 00:08:41;;;;;;;;;;;-0.40;99.90;;;;;;5028711;28;20000;-73
2022/12/19 00:11:10;;;;;;;;;;;-0.40;99.90;;;;;;5028293;28;19920;-73
2022/12/19 00:13:35;;;;;;;;;;;-0.30;99.90;;;;;;5027809;28;19993;-73
2022/12/19 00:16:02;;;;;;;;;;;-0.30;99.90;;;;;;5012152;28;20663;-73
2022/12/19 00:18:28;;;;;;;;;;;-0.30;99.90;;;;;;5011783;28;19927;-73
2022/12/19 00:21:00;;;;;;;;;;;-0.30;99.90;;;;;;5026953;28;19920;-72
2022/12/19 00:23:26;;;;;;;;;;;-0.20;99.90;;;;;;5010535;28;19920;-73
2022/12/19 00:25:52;;;;;;;;;;;-0.20;99.90;;;;;;5024104;28;19913;-73
2022/12/19 00:28:18;;;;;;;;;;;-0.20;99.90;;;;;;5029442;28;19909;-73
2022/12/19 00:30:43;;;;;;;;;;;-0.20;99.90;;;;;;5030344;28;20129;-73
2022/12/19 00:33:09;;;;;;;;;;;-0.20;99.90;;;;;;5022976;28;19913;-73
2022/12/19 00:35:34;;;;;;;;;;;-0.20;99.90;;;;;;5029410;28;19912;-72
2022/12/19 00:38:01;;;;;;;;;;;-0.20;99.90;;;;;;5028447;28;19923;-73
2022/12/19 00:40:27;;;;;;;;;;;-0.30;99.90;;;;;;5003660;28;19913;-72
2022/12/19 00:42:53;;;;;;;;;;;-0.30;99.90;;;;;;5022919;28;19993;-73
2022/12/19 00:45:18;;;;;;;;;;;-0.30;99.90;;;;;;5029751;28;20285;-73
2022/12/19 00:47:44;;;;;;;;;;;-0.30;99.90;;;;;;5030054;28;19988;-73
2022/12/19 00:50:09;;;;;;;;;;;-0.20;99.90;;;;;;5013262;28;19917;-74
2022/12/19 00:52:35;;;;;;;;;;;-0.30;99.90;;;;;;5030338;28;19913;-73
2022/12/19 00:55:04;;;;;;;;;;;-0.40;99.90;;;;;;5030335;28;19917;-72
2022/12/19 00:57:30;;;;;;;;;;;-0.30;99.90;;;;;;5029926;28;20424;-73
2022/12/19 00:59:55;;;;;;;;;;;-0.30;99.90;;;;;;5030444;28;20006;-73
2022/12/19 01:02:21;;;;;;;;;;;-0.30;99.90;;;;;;5024695;28;20051;-73
2022/12/19 01:04:47;;;;;;;;;;;-0.30;99.90;;;;;;5010370;28;19955;-72
2022/12/19 01:07:12;;;;;;;;;;;-0.30;99.90;;;;;;5011631;28;20386;-73
2022/12/19 01:09:38;;;;;;;;;;;-0.40;99.90;;;;;;5023023;28;20000;-73
2022/12/19 01:14:48;;;;;;;;;;;-0.40;99.90;;;;;;5029364;28;20004;-72
2022/12/19 01:17:14;;;;;;;;;;;-0.40;99.90;;;;;;5027100;28;20000;-72
2022/12/19 01:19:40;;;;;;;;;;;-0.40;99.90;;;;;;5028567;28;20270;-73
2022/12/19 01:22:05;;;;;;;;;;;-0.40;99.90;;;;;;5025946;28;19913;-73
2022/12/19 01:24:31;;;;;;;;;;;-0.40;99.90;;;;;;5028735;28;20255;-72
2022/12/19 01:26:57;;;;;;;;;;;-0.40;99.90;;;;;;5026387;28;19915;-73
2022/12/19 01:29:23;;;;;;;;;;;-0.40;99.90;;;;;;5028313;28;19999;-73
2022/12/19 01:31:49;;;;;;;;;;;-0.30;99.90;;;;;;5029398;28;19924;-73
2022/12/19 01:34:15;;;;;;;;;;;-0.40;99.90;;;;;;5028672;28;19913;-73
2022/12/19 01:36:42;;;;;;;;;;;-0.30;99.90;;;;;;5033281;28;19962;-73
2022/12/19 01:39:08;;;;;;;;;;;-0.40;99.90;;;;;;5012350;28;19959;-73
2022/12/19 01:41:34;;;;;;;;;;;-0.30;99.90;;;;;;5027636;28;19920;-73
2022/12/19 01:44:00;;;;;;;;;;;-0.30;99.90;;;;;;5027291;28;19971;-73
2022/12/19 01:46:45;;;;;;;;;;;-0.30;99.90;;;;;;5028910;28;20007;-73
2022/12/19 01:49:14;;;;;;;;;;;-0.20;99.90;;;;;;5022768;28;20522;-73
2022/12/19 01:51:41;;;;;;;;;;;-0.30;99.90;;;;;;5027828;28;19913;-72
2022/12/19 01:54:07;;;;;;;;;;;-0.30;99.90;;;;;;5016294;28;20208;-73
2022/12/19 01:56:34;;;;;;;;;;;-0.30;99.90;;;;;;5025945;28;19920;-73
2022/12/19 01:59:01;;;;;;;;;;;-0.20;99.90;;;;;;5011542;28;19917;-73
2022/12/19 02:01:27;;;;;;;;;;;-0.20;99.90;;;;;;5011503;28;19913;-73
2022/12/19 02:03:52;;;;;;;;;;;-0.20;99.90;;;;;;5024492;28;19913;-73
2022/12/19 02:06:18;;;;;;;;;;;-0.30;99.90;;;;;;5028843;28;19966;-73
2022/12/19 02:08:45;;;;;;;;;;;-0.20;99.90;;;;;;5025422;28;19917;-73
2022/12/19 02:11:10;;;;;;;;;;;-0.20;99.90;;;;;;5028482;28;19913;-73
2022/12/19 02:13:36;;;;;;;;;;;-0.20;99.90;;;;;;5021754;28;20472;-72
2022/12/19 02:16:17;;;;;;;;;;;-0.20;99.90;;;;;;5027374;28;20366;-72
2022/12/19 02:18:53;;;;;;;;;;;-0.20;99.90;;;;;;5027735;28;19924;-72
2022/12/19 02:21:28;;;;;;;;;;;-0.10;99.90;;;;;;5027580;28;19968;-72
2022/12/19 02:24:10;;;;;;;;;;;-0.10;99.90;;;;;;5027994;28;20036;-72
2022/12/19 02:26:36;;;;;;;;;;;-0.10;99.90;;;;;;5020888;28;19917;-72
2022/12/19 02:29:27;;;;;;;;;;;0.00;99.90;;;;;;5028867;28;20260;-72
2022/12/19 02:31:57;;;;;;;;;;;0.00;99.90;;;;;;5027451;28;19913;-72
2022/12/19 02:34:35;;;;;;;;;;;0.00;99.90;;;;;;5029649;28;19913;-72
2022/12/19 02:37:10;;;;;;;;;;;0.00;99.90;;;;;;5028646;28;19959;-72
2022/12/19 02:39:45;;;;;;;;;;;0.00;99.90;;;;;;5012360;28;19927;-72
2022/12/19 02:42:11;;;;;;;;;;;0.10;99.90;;;;;;5024870;28;19921;-72
2022/12/19 02:44:42;;;;;;;;;;;0.10;99.90;;;;;;5029171;28;20338;-72
2022/12/19 02:47:07;;;;;;;;;;;0.10;99.90;;;;;;5031279;28;20055;-72
2022/12/19 02:49:33;;;;;;;;;;;0.10;99.90;;;;;;5030808;28;20007;-72
2022/12/19 02:52:17;;;;;;;;;;;0.10;99.90;;;;;;5011631;28;19987;-72
2022/12/19 02:54:43;;;;;;;;;;;0.10;99.90;;;;;;5014100;28;19912;-72
2022/12/19 02:57:12;;;;;;;;;;;0.10;99.90;;;;;;5031307;28;19913;-72
2022/12/19 02:59:38;;;;;;;;;;;0.20;99.90;;;;;;4993241;28;19944;-73
2022/12/19 03:02:07;;;;;;;;;;;0.20;99.90;;;;;;5023809;28;20366;-72
2022/12/19 03:04:43;;;;;;;;;;;0.20;99.90;;;;;;5030966;28;20235;-72
2022/12/19 03:07:19;;;;;;;;;;;0.20;99.90;;;;;;5032226;28;19913;-72
2022/12/19 03:09:48;;;;;;;;;;;0.30;99.90;;;;;;5027752;28;19909;-71
2022/12/19 03:12:15;;;;;;;;;;;0.30;99.90;;;;;;5031630;28;20380;-72
2022/12/19 03:14:41;;;;;;;;;;;0.30;99.90;;;;;;5027485;28;19913;-72
2022/12/19 03:17:06;;;;;;;;;;;0.30;99.90;;;;;;5031288;28;19913;-72
2022/12/19 03:19:36;;;;;;;;;;;0.40;99.90;;;;;;5030601;28;19928;-72
2022/12/19 03:22:01;;;;;;;;;;;0.40;99.90;;;;;;5030783;28;20419;-72
2022/12/19 03:24:27;;;;;;;;;;;0.40;99.90;;;;;;5030821;28;20031;-72
2022/12/19 03:27:04;;;;;;;;;;;0.40;99.90;;;;;;5031009;28;19913;-73
2022/12/19 03:29:34;;;;;;;;;;;0.40;99.90;;;;;;5030018;28;19923;-72
2022/12/19 03:32:00;;;;;;;;;;;0.50;99.90;;;;;;5011280;28;20318;-72
2022/12/19 03:34:27;;;;;;;;;;;0.50;99.90;;;;;;5029415;28;20349;-72
2022/12/19 03:36:54;;;;;;;;;;;0.50;99.90;;;;;;5030486;28;19967;-72
2022/12/19 03:39:20;;;;;;;;;;;0.60;99.90;;;;;;5007414;28;20049;-72
2022/12/19 03:44:34;;;;;;;;;;;0.60;99.90;;;;;;5030501;28;20016;-72
2022/12/19 03:47:04;;;;;;;;;;;0.70;99.90;;;;;;5027581;28;19924;-72
2022/12/19 03:49:30;;;;;;;;;;;0.70;99.90;;;;;;5030387;28;19921;-72
2022/12/19 03:51:59;;;;;;;;;;;0.70;99.90;;;;;;5030708;28;19917;-72
2022/12/19 03:54:26;;;;;;;;;;;0.70;99.90;;;;;;5021809;28;19913;-72
2022/12/19 03:56:55;;;;;;;;;;;0.70;99.90;;;;;;5028715;28;19917;-72
2022/12/19 03:59:39;;;;;;;;;;;0.80;99.90;;;;;;5030611;28;19933;-72
2022/12/19 04:02:05;;;;;;;;;;;0.90;99.90;;;;;;5027403;28;20023;-72
2022/12/19 04:04:33;;;;;;;;;;;0.90;99.90;;;;;;5030053;28;20383;-72
2022/12/19 04:06:58;;;;;;;;;;;0.90;99.90;;;;;;5025963;28;19913;-74
2022/12/19 04:09:24;;;;;;;;;;;0.90;99.90;;;;;;5029371;28;20533;-73
2022/12/19 04:11:57;;;;;;;;;;;0.90;99.90;;;;;;5030722;28;19919;-72
2022/12/19 04:14:25;;;;;;;;;;;1.00;99.90;;;;;;5024091;28;19913;-73
2022/12/19 04:16:59;;;;;;;;;;;1.00;99.90;;;;;;5006176;28;20000;-73
2022/12/19 04:19:31;;;;;;;;;;;1.00;99.90;;;;;;5030064;28;19912;-72
2022/12/19 04:22:01;;;;;;;;;;;1.00;99.90;;;;;;5025172;28;19917;-72
2022/12/19 04:24:27;;;;;;;;;;;1.00;99.90;;;;;;5030461;28;19981;-73
2022/12/19 04:26:53;;;;;;;;;;;1.10;99.90;;;;;;5029742;28;19909;-73
2022/12/19 04:29:19;;;;;;;;;;;1.10;99.90;;;;;;5029830;28;19924;-72
2022/12/19 04:31:44;;;;;;;;;;;1.10;99.90;;;;;;5012164;28;19916;-74
2022/12/19 04:34:10;;;;;;;;;;;1.10;99.90;;;;;;5029949;28;20338;-72
2022/12/19 04:36:36;;;;;;;;;;;1.10;99.90;;;;;;5019640;28;19915;-74
2022/12/19 04:39:01;;;;;;;;;;;1.10;99.90;;;;;;5032660;28;19917;-73
2022/12/19 04:41:27;;;;;;;;;;;1.00;99.90;;;;;;5029011;28;19932;-72
2022/12/19 04:43:53;;;;;;;;;;;1.10;99.90;;;;;;5028294;28;19947;-72
2022/12/19 04:46:18;;;;;;;;;;;1.10;99.90;;;;;;5028362;28;19999;-72
2022/12/19 04:48:44;;;;;;;;;;;1.00;99.90;;;;;;5009562;28;20365;-73
2022/12/19 04:51:09;;;;;;;;;;;1.00;99.90;;;;;;5028835;28;19999;-72
2022/12/19 04:53:35;;;;;;;;;;;1.10;99.90;;;;;;5030135;28;19923;-73
2022/12/19 04:56:04;;;;;;;;;;;1.00;99.90;;;;;;5010257;28;19924;-72
2022/12/19 04:58:30;;;;;;;;;;;1.00;99.90;;;;;;5027599;28;19948;-72
2022/12/19 05:01:14;;;;;;;;;;;1.10;99.90;;;;;;5022772;28;19961;-72
2022/12/19 05:03:40;;;;;;;;;;;1.10;99.90;;;;;;5006822;28;20047;-72
2022/12/19 05:06:06;;;;;;;;;;;1.10;99.90;;;;;;5027917;28;20638;-72
2022/12/19 05:08:31;;;;;;;;;;;1.20;99.90;;;;;;5025456;28;20335;-72
2022/12/19 05:10:58;;;;;;;;;;;1.10;99.90;;;;;;5029179;28;20010;-72
2022/12/19 05:13:24;;;;;;;;;;;1.20;99.90;;;;;;5028877;28;19917;-72
2022/12/19 05:16:01;;;;;;;;;;;1.20;99.90;;;;;;5029365;28;20019;-73
2022/12/19 05:18:26;;;;;;;;;;;1.20;99.90;;;;;;5027798;28;19928;-72
2022/12/19 05:20:52;;;;;;;;;;;1.30;99.90;;;;;;5029509;28;20028;-72
2022/12/19 05:23:18;;;;;;;;;;;1.30;99.90;;;;;;5029092;28;19975;-72
2022/12/19 05:25:43;;;;;;;;;;;1.40;99.90;;;;;;5028198;28;20494;-73
2022/12/19 05:28:10;;;;;;;;;;;1.40;99.90;;;;;;5029285;28;19919;-72
2022/12/19 05:30:36;;;;;;;;;;;1.40;99.90;;;;;;5029723;28;19935;-72
2022/12/19 05:33:02;;;;;;;;;;;1.50;99.90;;;;;;4995610;28;20018;-72
2022/12/19 05:35:27;;;;;;;;;;;1.50;99.90;;;;;;5027322;28;19912;-72
2022/12/19 05:37:54;;;;;;;;;;;1.60;99.90;;;;;;5028065;28;20227;-72
2022/12/19 05:40:19;;;;;;;;;;;1.70;99.90;;;;;;5026501;28;19921;-72
2022/12/19 05:42:45;;;;;;;;;;;1.70;99.90;;;;;;5028510;28;20421;-72
2022/12/19 05:45:11;;;;;;;;;;;1.80;99.90;;;;;;5028909;28;19924;-72
2022/12/19 05:47:36;;;;;;;;;;;1.80;99.90;;;;;;5028360;28;19920;-73
2022/12/19 05:50:02;;;;;;;;;;;1.90;99.90;;;;;;5010330;28;19913;-72
2022/12/19 05:52:28;;;;;;;;;;;1.90;99.90;;;;;;5029467;28;19983;-72
2022/12/19 05:54:53;;;;;;;;;;;1.90;99.90;;;;;;5028895;28;19921;-72
2022/12/19 05:57:19;;;;;;;;;;;2.00;99.90;;;;;;5028568;28;19913;-72
2022/12/19 05:59:45;;;;;;;;;;;2.00;99.90;;;;;;5029985;28;19998;-72
2022/12/19 06:02:10;;;;;;;;;;;2.00;99.90;;;;;;5012012;28;20222;-72
2022/12/19 06:04:36;;;;;;;;;;;2.10;99.90;;;;;;5028275;28;19913;-72
2022/12/19 06:07:02;;;;;;;;;;;2.10;99.90;;;;;;5022817;28;20406;-73
2022/12/19 06:09:27;;;;;;;;;;;2.10;99.90;;;;;;5027978;28;19913;-73
2022/12/19 06:11:53;;;;;;;;;;;2.20;99.90;;;;;;5028538;28;19920;-72
2022/12/19 06:14:19;;;;;;;;;;;2.20;99.90;;;;;;5029812;28;19924;-72
2022/12/19 06:16:45;;;;;;;;;;;2.20;99.90;;;;;;5031060;28;19913;-72
2022/12/19 06:19:10;;;;;;;;;;;2.30;99.90;;;;;;5034488;28;19960;-72
2022/12/19 06:21:36;;;;;;;;;;;2.30;99.90;;;;;;5024640;28;20008;-72
2022/12/19 06:24:01;;;;;;;;;;;2.30;99.90;;;;;;5033158;28;19913;-73
2022/12/19 06:26:27;;;;;;;;;;;2.30;99.90;;;;;;5022879;28;19917;-72
2022/12/19 06:28:53;;;;;;;;;;;2.40;99.90;;;;;;5032200;28;20358;-72
2022/12/19 06:31:19;;;;;;;;;;;2.30;99.90;;;;;;5031927;28;20626;-72
2022/12/19 06:33:45;;;;;;;;;;;2.30;99.90;;;;;;5031378;28;19967;-71
2022/12/19 06:36:11;;;;;;;;;;;2.30;99.90;;;;;;5030436;28;19940;-72
2022/12/19 06:38:36;;;;;;;;;;;2.30;99.90;;;;;;5031908;28;20007;-72
2022/12/19 06:43:46;;;;;;;;;;;2.30;99.90;;;;;;5032631;28;20421;-72
2022/12/19 06:46:12;;;;;;;;;;;2.30;99.90;;;;;;5014606;28;20027;-72
2022/12/19 06:48:37;;;;;;;;;;;2.30;99.90;;;;;;5014985;28;20386;-72
2022/12/19 06:51:03;;;;;;;;;;;2.40;99.90;;;;;;5028091;28;19909;-72
2022/12/19 06:53:29;;;;;;;;;;;2.40;99.90;;;;;;5031420;28;19913;-72
2022/12/19 06:55:55;;;;;;;;;;;2.40;99.90;;;;;;5030917;28;20365;-71
2022/12/19 06:58:21;;;;;;;;;;;2.50;99.90;;;;;;5016310;28;19925;-72
2022/12/19 07:00:46;;;;;;;;;;;2.50;99.90;;;;;;5028981;28;19913;-72
2022/12/19 07:03:12;;;;;;;;;;;2.50;99.90;;;;;;5014128;28;19971;-73
2022/12/19 07:05:38;;;;;;;;;;;2.50;99.90;;;;;;5014427;28;19913;-71
2022/12/19 07:08:04;;;;;;;;;;;2.60;99.90;;;;;;5008050;28;19921;-72
2022/12/19 07:10:29;;;;;;;;;;;2.60;99.90;;;;;;5010456;28;20323;-72
2022/12/19 07:12:55;;;;;;;;;;;2.60;99.90;;;;;;5028166;28;19920;-72
2022/12/19 07:15:21;;;;;;;;;;;2.60;99.90;;;;;;5019698;28;19913;-71
2022/12/19 07:17:47;;;;;;;;;;;2.60;99.90;;;;;;4995378;28;19917;-72
2022/12/19 07:20:12;;;;;;;;;;;2.60;99.90;;;;;;5015058;28;19924;-71
2022/12/19 07:22:38;;;;;;;;;;;2.60;99.90;;;;;;5020967;28;19913;-71
2022/12/19 07:25:04;;;;;;;;;;;2.60;99.90;;;;;;5014240;28;20055;-72
2022/12/19 07:27:30;;;;;;;;;;;2.60;99.90;;;;;;5038661;28;19970;-72
2022/12/19 07:29:56;;;;;;;;;;;2.60;99.90;;;;;;5003999;28;19909;-73
2022/12/19 07:32:21;;;;;;;;;;;2.60;99.90;;;;;;5028181;28;20319;-73
2022/12/19 07:34:47;;;;;;;;;;;2.60;99.90;;;;;;5027784;28;20739;-73
2022/12/19 07:37:13;;;;;;;;;;;2.60;99.90;;;;;;5026121;28;19924;-72
2022/12/19 07:39:39;;;;;;;;;;;2.60;99.90;;;;;;5008060;28;20383;-73
2022/12/19 07:42:05;;;;;;;;;;;2.60;99.90;;;;;;5024737;28;19921;-73
2022/12/19 07:44:31;;;;;;;;;;;2.60;99.90;;;;;;5028944;28;20318;-72
2022/12/19 07:46:56;;;;;;;;;;;2.70;99.90;;;;;;5028372;28;20230;-73
2022/12/19 07:49:22;;;;;;;;;;;2.70;99.90;;;;;;5028544;28;19920;-72
2022/12/19 07:51:48;;;;;;;;;;;2.70;99.90;;;;;;5024555;28;20338;-72
2022/12/19 07:54:14;;;;;;;;;;;2.70;99.90;;;;;;5024832;28;20326;-73
2022/12/19 07:56:40;;;;;;;;;;;2.70;99.90;;;;;;5031223;28;19966;-71
2022/12/19 07:59:05;;;;;;;;;;;2.70;99.90;;;;;;5025305;28;19925;-71
2022/12/19 08:01:31;;;;;;;;;;;2.70;99.90;;;;;;5031608;28;19917;-71
2022/12/19 08:03:57;;;;;;;;;;;2.70;99.90;;;;;;5030054;28;19986;-72
2022/12/19 08:06:23;;;;;;;;;;;2.70;99.90;;;;;;5030854;28;19920;-72
2022/12/19 08:08:49;;;;;;;;;;;2.70;99.90;;;;;;5026484;28;20402;-71
2022/12/19 08:11:16;;;;;;;;;;;2.80;99.90;;;;;;5030594;28;20004;-71
2022/12/19 08:13:42;;;;;;;;;;;2.80;99.90;;;;;;5011856;28;20313;-72
2022/12/19 08:16:07;;;;;;;;;;;2.80;99.90;;;;;;5010207;28;19917;-71
2022/12/19 08:18:33;;;;;;;;;;;2.80;99.90;;;;;;5028147;28;19913;-71
2022/12/19 08:20:58;;;;;;;;;;;2.80;99.90;;;;;;5029173;28;20362;-71
2022/12/19 08:23:24;;;;;;;;;;;2.80;99.90;;;;;;5027885;28;20382;-71
2022/12/19 08:26:00;;;;;;;;;;;2.90;99.90;;;;;;5029813;28;19913;-71
2022/12/19 08:28:26;;;;;;;;;;;2.80;99.90;;;;;;5027858;28;19913;-66
2022/12/19 08:30:52;;;;;;;;;;;2.90;99.90;;;;;;5029641;28;20315;-66
2022/12/19 08:33:17;;;;;;;;;;;2.90;99.90;;;;;;5029695;28;19916;-65
2022/12/19 08:35:43;;;;;;;;;;;2.90;99.90;;;;;;5028818;28;19913;-65
2022/12/19 08:38:08;;;;;;;;;;;3.00;99.90;;;;;;5029504;28;19936;-65
2022/12/19 08:40:34;;;;;;;;;;;3.00;99.90;;;;;;5027811;28;19921;-65
2022/12/19 08:43:00;;;;;;;;;;;3.00;99.90;;;;;;5029648;28;20341;-65
2022/12/19 08:45:26;;;;;;;;;;;3.00;99.90;;;;;;5026626;28;19924;-66
2022/12/19 08:47:52;;;;;;;;;;;3.00;99.90;;;;;;5029926;28;19909;-65
2022/12/19 08:50:17;;;;;;;;;;;3.10;99.90;;;;;;4997598;28;20212;-65
2022/12/19 08:52:43;;;;;;;;;;;3.10;99.90;;;;;;5028390;28;20273;-65
2022/12/19 08:55:09;;;;;;;;;;;3.10;99.90;;;;;;5029794;28;19909;-73
2022/12/19 08:57:34;;;;;;;;;;;3.10;99.90;;;;;;5026157;28;19927;-73
2022/12/19 09:00:00;;;;;;;;;;;3.20;99.90;;;;;;5011774;28;19916;-72
2022/12/19 09:02:26;;;;;;;;;;;3.20;99.90;;;;;;5029760;28;20566;-73
2022/12/19 09:04:51;;;;;;;;;;;3.20;99.90;;;;;;5027817;28;19909;-73
2022/12/19 09:07:17;;;;;;;;;;;3.20;99.90;;;;;;5029963;28;19909;-73
2022/12/19 09:09:43;;;;;;;;;;;3.20;99.90;;;;;;5028722;28;19924;-74
2022/12/19 09:12:09;;;;;;;;;;;3.30;99.90;;;;;;5029538;28;19944;-73
2022/12/19 09:14:34;;;;;;;;;;;3.40;99.90;;;;;;5025358;28;19917;-72
2022/12/19 09:17:00;;;;;;;;;;;3.40;99.90;;;;;;5029404;28;19912;-72
2022/12/19 09:19:26;;;;;;;;;;;3.50;99.90;;;;;;5022764;28;19925;-73
2022/12/19 09:21:51;;;;;;;;;;;3.50;99.90;;;;;;5006995;28;20316;-72
2022/12/19 09:24:17;;;;;;;;;;;3.60;99.90;;;;;;5009493;28;19975;-72
2022/12/19 09:26:44;;;;;;;;;;;3.60;99.90;;;;;;5028443;28;20402;-72
2022/12/19 09:29:10;;;;;;;;;;;3.70;99.90;;;;;;5029299;28;19919;-71
2022/12/19 09:31:36;;;;;;;;;;;3.70;99.90;;;;;;5028140;28;19913;-71
2022/12/19 09:34:02;;;;;;;;;;;3.70;99.90;;;;;;5029262;28;19952;-70
2022/12/19 09:36:27;;;;;;;;;;;3.80;99.90;;;;;;5025608;28;19994;-71
2022/12/19 09:38:54;;;;;;;;;;;3.80;99.90;;;;;;5028378;28;19913;-71
2022/12/19 09:41:38;;;;;;;;;;;3.90;99.90;;;;;;5023278;28;19922;-71
2022/12/19 09:44:22;;;;;;;;;;;3.90;99.90;;;;;;5029641;28;19913;-71
2022/12/19 09:46:51;;;;;;;;;;;3.90;99.90;;;;;;5012833;28;19936;-71
2022/12/19 09:49:21;;;;;;;;;;;4.00;99.90;;;;;;5011622;28;19924;-69
2022/12/19 09:52:01;;;;;;;;;;;4.00;99.90;;;;;;5005667;28;19928;-70
2022/12/19 09:54:30;;;;;;;;;;;4.00;99.90;;;;;;5023441;28;19928;-71
2022/12/19 09:56:57;;;;;;;;;;;4.10;99.90;;;;;;5028001;28;20024;-71
2022/12/19 09:59:43;;;;;;;;;;;4.10;99.90;;;;;;5026419;28;19917;-71
2022/12/19 10:02:27;;;;;;;;;;;4.20;99.90;;;;;;5007571;28;19963;-71
2022/12/19 10:05:10;;;;;;;;;;;4.20;99.90;;;;;;5027630;28;19971;-71
2022/12/19 10:07:36;;;;;;;;;;;4.30;99.90;;;;;;5022690;28;19920;-70
2022/12/19 10:10:01;;;;;;;;;;;4.30;99.90;;;;;;5027709;28;19913;-70
2022/12/19 10:12:37;;;;;;;;;;;4.40;99.90;;;;;;5028047;28;19913;-70
2022/12/19 10:15:24;;;;;;;;;;;4.40;99.90;;;;;;5021623;28;19948;-73
2022/12/19 10:18:04;;;;;;;;;;;4.40;99.90;;;;;;5012212;28;20242;-70
2022/12/19 10:20:34;;;;;;;;;;;4.50;99.90;;;;;;5027590;28;19917;-71
2022/12/19 10:23:15;;;;;;;;;;;4.50;99.90;;;;;;5027959;28;19995;-71
2022/12/19 10:25:56;;;;;;;;;;;4.40;99.90;;;;;;5028971;28;20361;-71
2022/12/19 10:28:34;;;;;;;;;;;4.50;99.90;;;;;;5027147;28;19913;-70
2022/12/19 10:31:06;;;;;;;;;;;4.50;99.90;;;;;;5029380;28;19913;-70
2022/12/19 10:33:40;;;;;;;;;;;4.50;99.90;;;;;;5010024;28;19916;-70
2022/12/19 10:36:08;;;;;;;;;;;4.50;99.90;;;;;;5005059;28;19924;-71
2022/12/19 10:38:59;;;;;;;;;;;4.50;99.90;;;;;;5023869;28;20380;-71
2022/12/19 10:41:26;;;;;;;;;;;4.40;99.90;;;;;;5024671;28;19920;-71
2022/12/19 10:44:06;;;;;;;;;;;4.40;99.90;;;;;;5005860;28;20334;-70
2022/12/19 10:46:36;;;;;;;;;;;4.40;99.90;;;;;;5011052;28;19941;-71
2022/12/19 10:49:12;;;;;;;;;;;4.40;99.90;;;;;;5023632;28;20258;-71
2022/12/19 10:51:37;;;;;;;;;;;4.40;99.90;;;;;;5022099;28;19917;-70
2022/12/19 10:54:03;;;;;;;;;;;4.40;99.90;;;;;;5011711;28;19917;-70
2022/12/19 10:56:29;;;;;;;;;;;4.40;99.90;;;;;;4993698;28;20476;-70
2022/12/19 10:58:58;;;;;;;;;;;4.50;99.90;;;;;;5018567;28;19921;-70
2022/12/19 11:01:26;;;;;;;;;;;4.40;99.90;;;;;;5024930;28;19913;-68
2022/12/19 11:04:11;;;;;;;;;;;4.40;99.90;;;;;;5027470;28;19913;-68
2022/12/19 11:06:47;;;;;;;;;;;4.50;99.90;;;;;;5027606;28;19916;-68
2022/12/19 11:09:19;;;;;;;;;;;4.50;99.90;;;;;;5028527;28;19913;-68
2022/12/19 11:11:46;;;;;;;;;;;4.50;99.90;;;;;;5028376;28;19917;-69
2022/12/19 11:14:19;;;;;;;;;;;4.60;99.90;;;;;;5026579;28;20390;-69
2022/12/19 11:16:45;;;;;;;;;;;4.60;99.90;;;;;;5029048;28;19957;-69
2022/12/19 11:19:29;;;;;;;;;;;4.60;99.90;;;;;;5025232;28;20026;-69
2022/12/19 11:21:56;;;;;;;;;;;4.60;99.90;;;;;;5023184;28;19912;-68
2022/12/19 11:24:27;;;;;;;;;;;4.60;99.90;;;;;;5025143;28;20337;-72
2022/12/19 11:26:53;;;;;;;;;;;4.70;99.90;;;;;;5007876;28;19948;-71
2022/12/19 11:29:23;;;;;;;;;;;4.70;99.90;;;;;;5007986;28;20023;-71
2022/12/19 11:31:52;;;;;;;;;;;4.70;99.90;;;;;;5023582;28;19947;-71
2022/12/19 11:34:20;;;;;;;;;;;4.70;99.90;;;;;;5022760;28;19932;-70
2022/12/19 11:36:56;;;;;;;;;;;4.80;99.90;;;;;;5024969;28;19913;-72
2022/12/19 11:39:30;;;;;;;;;;;4.80;99.90;;;;;;5005926;28;20263;-72
2022/12/19 11:41:59;;;;;;;;;;;4.80;99.90;;;;;;5025841;28;20253;-72
2022/12/19 11:44:31;;;;;;;;;;;4.90;99.90;;;;;;5025516;28;20349;-71
2022/12/19 11:47:03;;;;;;;;;;;4.90;99.90;;;;;;5020893;28;20476;-72
2022/12/19 11:49:31;;;;;;;;;;;4.90;99.90;;;;;;5025523;28;19924;-72
2022/12/19 11:51:59;;;;;;;;;;;4.90;99.90;;;;;;5008055;28;19970;-72
2022/12/19 11:54:57;;;;;;;;;;;5.00;99.90;;;;;;5023843;28;20382;-72
2022/12/19 11:57:23;;;;;;;;;;;5.00;99.90;;;;;;5028367;28;20287;-71
2022/12/19 11:59:48;;;;;;;;;;;5.10;99.90;;;;;;5024645;28;19975;-72
2022/12/19 12:02:23;;;;;;;;;;;5.10;99.90;;;;;;5023960;28;19924;-72
2022/12/19 12:05:08;;;;;;;;;;;5.20;99.90;;;;;;5023801;28;19928;-71
2022/12/19 12:07:35;;;;;;;;;;;5.20;99.90;;;;;;5025833;28;19923;-71
2022/12/19 12:10:13;;;;;;;;;;;5.20;99.90;;;;;;5024336;28;20068;-71
2022/12/19 12:12:43;;;;;;;;;;;5.30;99.90;;;;;;5018207;28;20546;-72
2022/12/19 12:15:15;;;;;;;;;;;5.30;99.90;;;;;;5021951;28;19912;-72
2022/12/19 12:17:45;;;;;;;;;;;5.30;99.90;;;;;;5024474;28;19913;-71
2022/12/19 12:20:23;;;;;;;;;;;5.30;99.90;;;;;;5007087;28;19975;-72
2022/12/19 12:22:58;;;;;;;;;;;5.40;99.90;;;;;;5021653;28;19913;-72
2022/12/19 12:25:30;;;;;;;;;;;5.40;99.90;;;;;;5007581;28;20321;-72
2022/12/19 12:28:03;;;;;;;;;;;5.50;99.90;;;;;;5024220;28;20018;-71
2022/12/19 12:30:31;;;;;;;;;;;5.50;99.90;;;;;;5026473;28;19913;-72
2022/12/19 12:32:57;;;;;;;;;;;5.50;99.90;;;;;;5022059;28;19956;-72
2022/12/19 12:35:29;;;;;;;;;;;5.50;99.90;;;;;;5025438;28;20010;-72
2022/12/19 12:37:54;;;;;;;;;;;5.50;99.90;;;;;;5025404;28;20288;-72
2022/12/19 12:40:39;;;;;;;;;;;5.50;99.90;;;;;;5024059;28;19928;-72
2022/12/19 12:43:13;;;;;;;;;;;5.50;99.90;;;;;;5018972;28;19951;-71
2022/12/19 12:45:39;;;;;;;;;;;5.50;99.90;;;;;;5014961;28;20007;-71
2022/12/19 12:48:14;;;;;;;;;;;5.50;99.90;;;;;;5006819;28;20516;-71
2022/12/19 12:50:40;;;;;;;;;;;5.50;99.90;;;;;;5026449;28;19952;-71
2022/12/19 12:53:06;;;;;;;;;;;5.50;99.90;;;;;;5026290;28;20381;-71
2022/12/19 12:55:33;;;;;;;;;;;5.50;99.90;;;;;;4997552;28;19919;-72
2022/12/19 12:57:59;;;;;;;;;;;5.50;99.90;;;;;;5024448;28;19916;-72
2022/12/19 13:00:27;;;;;;;;;;;5.50;99.90;;;;;;5003683;28;20422;-72
2022/12/19 13:02:54;;;;;;;;;;;5.60;99.90;;;;;;5024313;28;19917;-72
2022/12/19 13:05:38;;;;;;;;;;;5.60;99.90;;;;;;5020952;28;19924;-71
2022/12/19 13:08:36;;;;;;;;;;;5.60;99.90;;;;;;5024722;28;19936;-71
2022/12/19 13:11:06;;;;;;;;;;;5.60;99.90;;;;;;5017073;28;19912;-71
2022/12/19 13:13:46;;;;;;;;;;;5.60;99.90;;;;;;5022004;28;19917;-71
2022/12/19 13:16:41;;;;;;;;;;;5.60;99.90;;;;;;5024474;28;20316;-71
2022/12/19 13:19:26;;;;;;;;;;;5.60;99.90;;;;;;5022639;28;19917;-71
2022/12/19 13:22:04;;;;;;;;;;;5.60;99.90;;;;;;5023319;28;20361;-72
2022/12/19 13:24:40;;;;;;;;;;;5.60;99.90;;;;;;5020315;28;19913;-71
2022/12/19 13:27:17;;;;;;;;;;;5.60;99.90;;;;;;5023418;28;20005;-71
2022/12/19 13:29:58;;;;;;;;;;;5.60;99.90;;;;;;5022932;28;19912;-72
2022/12/19 13:32:24;;;;;;;;;;;5.60;99.90;;;;;;5025556;28;19920;-72
2022/12/19 13:34:51;;;;;;;;;;;5.70;99.90;;;;;;5021408;28;20007;-72
2022/12/19 13:37:27;;;;;;;;;;;5.70;99.90;;;;;;5029782;28;19995;-71
2022/12/19 13:39:52;;;;;;;;;;;5.70;99.90;;;;;;5023684;28;19917;-71
2022/12/19 13:45:11;;;;;;;;;;;5.70;99.90;;;;;;5021256;28;19987;-72
2022/12/19 13:47:37;;;;;;;;;;;5.70;99.90;;;;;;5008263;28;20320;-71
2022/12/19 13:50:04;;;;;;;;;;;5.70;99.90;;;;;;5023270;28;20364;-72
2022/12/19 13:52:30;;;;;;;;;;;5.70;99.90;;;;;;5024992;28;19916;-71
2022/12/19 13:54:56;;;;;;;;;;;5.70;99.90;;;;;;5020934;28;19920;-71
2022/12/19 13:57:22;;;;;;;;;;;5.80;99.90;;;;;;5024890;28;20219;-71
2022/12/19 13:59:48;;;;;;;;;;;5.90;99.90;;;;;;5025136;28;19917;-72
2022/12/19 14:02:25;;;;;;;;;;;6.00;99.90;;;;;;5008844;28;19917;-71
2022/12/19 14:04:50;;;;;;;;;;;6.00;99.90;;;;;;5022471;28;19970;-72
2022/12/19 14:07:34;;;;;;;;;;;6.00;99.90;;;;;;5019700;28;20004;-72
2022/12/19 14:09:59;;;;;;;;;;;6.00;99.90;;;;;;5011355;28;20388;-71
2022/12/19 14:15:20;;;;;;;;;;;6.00;99.90;;;;;;5024370;28;19970;-72
2022/12/19 14:17:48;;;;;;;;;;;6.00;99.90;;;;;;5025679;28;19956;-70
2022/12/19 14:20:18;;;;;;;;;;;6.00;99.90;;;;;;4996384;28;19995;-72
2022/12/19 14:22:43;;;;;;;;;;;6.00;99.90;;;;;;5019344;28;19944;-72
2022/12/19 14:25:10;;;;;;;;;;;6.00;99.90;;;;;;5025547;28;20311;-72
2022/12/19 14:27:36;;;;;;;;;;;6.00;99.90;;;;;;5019290;28;20567;-71
2022/12/19 14:30:03;;;;;;;;;;;6.00;99.90;;;;;;5021281;28;19913;-71
2022/12/19 14:32:29;;;;;;;;;;;6.10;99.90;;;;;;5023460;28;19920;-71
2022/12/19 14:34:54;;;;;;;;;;;6.00;99.90;;;;;;5011182;28;19975;-71
2022/12/19 14:37:27;;;;;;;;;;;6.00;99.90;;;;;;5029894;28;19921;-71
2022/12/19 14:39:56;;;;;;;;;;;6.00;99.90;;;;;;5031082;28;20003;-69
2022/12/19 14:45:25;;;;;;;;;;;6.00;99.90;;;;;;5028231;28;20393;-70
2022/12/19 14:47:50;;;;;;;;;;;5.90;99.90;;;;;;5031791;28;19920;-71
2022/12/19 14:50:32;;;;;;;;;;;5.90;99.90;;;;;;5024657;28;19921;-70
2022/12/19 14:53:07;;;;;;;;;;;5.90;99.90;;;;;;5023982;28;19952;-70
2022/12/19 14:55:34;;;;;;;;;;;5.90;99.90;;;;;;5030709;28;19919;-71